sensor_id;sensor_type;location;lat;lon;timestamp;pressure;altitude;pressure_sealevel;temperature;humidity
76460;BME280;65299;46.084;18.762;2022-12-11T00:01:08;98427.06;;;3.72;86.38
76460;BME280;65299;46.084;18.762;2022-12-11T00:04:08;98445.19;;;3.48;86.14
76460;BME280;65299;46.084;18.762;2022-12-11T00:07:09;98447.53;;;3.45;86.66
76460;BME280;65299;46.084;18.762;2022-12-11T00:10:09;98458.03;;;3.40;86.30
76460;BME280;65299;46.084;18.762;2022-12-11T00:13:10;98466.41;;;3.36;86.41
76460;BME280;65299;46.084;18.762;2022-12-11T00:16:10;98487.09;;;3.33;86.18
76460;BME280;65299;46.084;18.762;2022-12-11T00:19:11;98478.97;;;3.34;86.64
76460;BME280;65299;46.084;18.762;2022-12-11T00:22:12;98477.91;;;3.30;86.29
76460;BME280;65299;46.084;18.762;2022-12-11T00:25:12;98495.25;;;3.31;86.52
76460;BME280;65299;46.084;18.762;2022-12-11T00:28:16;98487.63;;;3.30;86.06
76460;BME280;65299;46.084;18.762;2022-12-11T00:31:20;98509.09;;;3.22;86.40
76460;BME280;65299;46.084;18.762;2022-12-11T00:34:21;98498.09;;;3.30;86.16
76460;BME280;65299;46.084;18.762;2022-12-11T00:37:21;98516.72;;;3.28;85.80
76460;BME280;65299;46.084;18.762;2022-12-11T00:40:21;98539.50;;;3.23;85.57
76460;BME280;65299;46.084;18.762;2022-12-11T00:43:22;98532.97;;;3.25;85.61
76460;BME280;65299;46.084;18.762;2022-12-11T00:46:22;98563.09;;;3.23;85.87
76460;BME280;65299;46.084;18.762;2022-12-11T00:49:23;98572.25;;;3.20;85.55
76460;BME280;65299;46.084;18.762;2022-12-11T00:52:23;98573.28;;;3.14;85.33
76460;BME280;65299;46.084;18.762;2022-12-11T00:55:24;98574.88;;;3.20;85.42
76460;BME280;65299;46.084;18.762;2022-12-11T00:58:24;98572.75;;;3.07;85.70
76460;BME280;65299;46.084;18.762;2022-12-11T01:01:25;98590.28;;;3.07;85.49
76460;BME280;65299;46.084;18.762;2022-12-11T01:04:25;98594.72;;;3.01;85.30
76460;BME280;65299;46.084;18.762;2022-12-11T01:07:26;98599.97;;;3.01;85.67
76460;BME280;65299;46.084;18.762;2022-12-11T01:10:26;98585.53;;;2.99;85.18
76460;BME280;65299;46.084;18.762;2022-12-11T01:13:26;98598.06;;;2.92;85.24
76460;BME280;65299;46.084;18.762;2022-12-11T01:16:27;98599.84;;;2.81;85.00
76460;BME280;65299;46.084;18.762;2022-12-11T01:19:27;98612.13;;;2.71;84.93
76460;BME280;65299;46.084;18.762;2022-12-11T01:22:28;98591.44;;;2.74;85.60
76460;BME280;65299;46.084;18.762;2022-12-11T01:25:28;98594.53;;;2.66;85.24
76460;BME280;65299;46.084;18.762;2022-12-11T01:28:28;98603.94;;;2.62;85.40
76460;BME280;65299;46.084;18.762;2022-12-11T01:31:29;98606.03;;;2.60;85.27
76460;BME280;65299;46.084;18.762;2022-12-11T01:34:30;98614.84;;;2.49;85.12
76460;BME280;65299;46.084;18.762;2022-12-11T01:37:32;98600.66;;;2.45;84.88
76460;BME280;65299;46.084;18.762;2022-12-11T01:40:32;98604.88;;;2.46;85.22
76460;BME280;65299;46.084;18.762;2022-12-11T01:43:33;98599.50;;;2.31;85.23
76460;BME280;65299;46.084;18.762;2022-12-11T01:46:35;98600.31;;;2.31;85.28
76460;BME280;65299;46.084;18.762;2022-12-11T01:49:37;98603.47;;;2.33;85.04
76460;BME280;65299;46.084;18.762;2022-12-11T01:52:38;98604.94;;;2.19;85.53
76460;BME280;65299;46.084;18.762;2022-12-11T01:55:40;98595.81;;;2.27;85.15
76460;BME280;65299;46.084;18.762;2022-12-11T01:58:44;98587.16;;;2.21;84.77
76460;BME280;65299;46.084;18.762;2022-12-11T02:04:52;98611.16;;;2.13;85.65
76460;BME280;65299;46.084;18.762;2022-12-11T02:07:56;98602.78;;;2.16;85.12
76460;BME280;65299;46.084;18.762;2022-12-11T02:11:00;98600.19;;;2.16;84.98
76460;BME280;65299;46.084;18.762;2022-12-11T02:14:13;98589.91;;;2.10;84.98
76460;BME280;65299;46.084;18.762;2022-12-11T02:17:22;98592.31;;;2.11;84.76
76460;BME280;65299;46.084;18.762;2022-12-11T02:23:32;98581.50;;;2.03;85.33
76460;BME280;65299;46.084;18.762;2022-12-11T02:33:02;98602.16;;;1.99;85.31
76460;BME280;65299;46.084;18.762;2022-12-11T02:36:06;98605.59;;;2.05;85.21
76460;BME280;65299;46.084;18.762;2022-12-11T02:39:09;98599.22;;;1.96;84.88
76460;BME280;65299;46.084;18.762;2022-12-11T02:42:12;98595.41;;;2.08;84.75
76460;BME280;65299;46.084;18.762;2022-12-11T02:45:15;98611.84;;;2.04;84.70
76460;BME280;65299;46.084;18.762;2022-12-11T02:48:18;98612.97;;;2.13;84.34
76460;BME280;65299;46.084;18.762;2022-12-11T02:51:27;98621.56;;;2.08;84.35
76460;BME280;65299;46.084;18.762;2022-12-11T02:54:31;98638.31;;;2.07;84.50
76460;BME280;65299;46.084;18.762;2022-12-11T02:57:38;98626.44;;;1.95;84.22
76460;BME280;65299;46.084;18.762;2022-12-11T03:00:41;98617.13;;;2.09;84.53
76460;BME280;65299;46.084;18.762;2022-12-11T03:03:41;98643.78;;;2.06;84.64
76460;BME280;65299;46.084;18.762;2022-12-11T03:06:46;98633.31;;;2.06;84.47
76460;BME280;65299;46.084;18.762;2022-12-11T03:09:49;98645.72;;;2.15;83.94
76460;BME280;65299;46.084;18.762;2022-12-11T03:12:52;98666.69;;;2.20;84.17
76460;BME280;65299;46.084;18.762;2022-12-11T03:22:39;98679.53;;;2.22;83.49
76460;BME280;65299;46.084;18.762;2022-12-11T03:26:00;98693.63;;;2.16;83.13
76460;BME280;65299;46.084;18.762;2022-12-11T03:29:10;98688.47;;;2.26;83.36
76460;BME280;65299;46.084;18.762;2022-12-11T03:32:16;98705.44;;;2.23;84.28
76460;BME280;65299;46.084;18.762;2022-12-11T03:35:40;98714.66;;;2.26;83.34
76460;BME280;65299;46.084;18.762;2022-12-11T03:39:18;98722.78;;;2.29;83.22
76460;BME280;65299;46.084;18.762;2022-12-11T03:42:20;98746.09;;;2.31;83.68
76460;BME280;65299;46.084;18.762;2022-12-11T03:45:23;98747.63;;;2.27;83.61
76460;BME280;65299;46.084;18.762;2022-12-11T03:48:27;98751.28;;;2.26;82.98
76460;BME280;65299;46.084;18.762;2022-12-11T03:51:31;98760.50;;;2.33;82.88
76460;BME280;65299;46.084;18.762;2022-12-11T03:54:33;98774.44;;;2.39;83.41
76460;BME280;65299;46.084;18.762;2022-12-11T03:57:35;98767.31;;;2.34;83.38
76460;BME280;65299;46.084;18.762;2022-12-11T04:00:37;98772.81;;;2.33;83.10
76460;BME280;65299;46.084;18.762;2022-12-11T04:03:37;98764.75;;;2.39;83.50
76460;BME280;65299;46.084;18.762;2022-12-11T04:06:38;98771.47;;;2.30;83.50
76460;BME280;65299;46.084;18.762;2022-12-11T04:09:39;98772.47;;;2.51;83.16
76460;BME280;65299;46.084;18.762;2022-12-11T04:12:39;98766.00;;;2.32;82.89
76460;BME280;65299;46.084;18.762;2022-12-11T04:15:40;98757.63;;;2.35;83.39
76460;BME280;65299;46.084;18.762;2022-12-11T04:18:40;98767.31;;;2.34;83.49
76460;BME280;65299;46.084;18.762;2022-12-11T04:21:59;98774.84;;;2.26;83.75
76460;BME280;65299;46.084;18.762;2022-12-11T04:25:18;98773.16;;;2.41;83.07
76460;BME280;65299;46.084;18.762;2022-12-11T04:28:18;98770.00;;;2.39;82.98
76460;BME280;65299;46.084;18.762;2022-12-11T04:31:20;98771.56;;;2.40;82.91
76460;BME280;65299;46.084;18.762;2022-12-11T04:34:21;98784.72;;;2.45;83.33
76460;BME280;65299;46.084;18.762;2022-12-11T04:37:22;98776.50;;;2.37;82.84
76460;BME280;65299;46.084;18.762;2022-12-11T04:40:22;98773.84;;;2.32;83.01
76460;BME280;65299;46.084;18.762;2022-12-11T04:43:23;98767.56;;;2.33;82.93
76460;BME280;65299;46.084;18.762;2022-12-11T04:46:24;98778.09;;;2.38;82.83
76460;BME280;65299;46.084;18.762;2022-12-11T04:49:24;98782.53;;;2.37;82.57
76460;BME280;65299;46.084;18.762;2022-12-11T04:52:25;98780.22;;;2.41;82.44
76460;BME280;65299;46.084;18.762;2022-12-11T04:55:25;98792.50;;;2.40;82.05
76460;BME280;65299;46.084;18.762;2022-12-11T04:58:26;98817.41;;;2.43;82.28
76460;BME280;65299;46.084;18.762;2022-12-11T05:01:27;98819.66;;;2.56;82.03
76460;BME280;65299;46.084;18.762;2022-12-11T05:04:31;98832.00;;;2.61;81.81
76460;BME280;65299;46.084;18.762;2022-12-11T05:07:32;98846.84;;;2.55;81.44
76460;BME280;65299;46.084;18.762;2022-12-11T05:10:32;98856.13;;;2.63;81.14
76460;BME280;65299;46.084;18.762;2022-12-11T05:13:33;98866.38;;;2.69;81.72
76460;BME280;65299;46.084;18.762;2022-12-11T05:16:33;98868.41;;;2.62;80.27
76460;BME280;65299;46.084;18.762;2022-12-11T05:19:34;98872.59;;;2.63;80.71
76460;BME280;65299;46.084;18.762;2022-12-11T05:22:34;98872.47;;;2.75;80.73
76460;BME280;65299;46.084;18.762;2022-12-11T05:25:35;98876.81;;;2.64;79.68
76460;BME280;65299;46.084;18.762;2022-12-11T05:28:37;98875.84;;;2.70;80.22
76460;BME280;65299;46.084;18.762;2022-12-11T05:31:38;98871.72;;;2.79;80.54
76460;BME280;65299;46.084;18.762;2022-12-11T05:34:38;98873.25;;;2.75;79.90
76460;BME280;65299;46.084;18.762;2022-12-11T05:37:39;98885.97;;;2.88;79.80
76460;BME280;65299;46.084;18.762;2022-12-11T05:40:40;98887.31;;;2.91;79.60
76460;BME280;65299;46.084;18.762;2022-12-11T05:43:41;98882.06;;;2.91;79.36
76460;BME280;65299;46.084;18.762;2022-12-11T05:46:41;98877.72;;;3.01;79.33
76460;BME280;65299;46.084;18.762;2022-12-11T05:49:42;98883.72;;;2.97;78.86
76460;BME280;65299;46.084;18.762;2022-12-11T05:52:42;98884.16;;;2.89;78.51
76460;BME280;65299;46.084;18.762;2022-12-11T05:55:42;98891.38;;;3.03;78.65
76460;BME280;65299;46.084;18.762;2022-12-11T05:58:46;98899.66;;;2.95;78.80
76460;BME280;65299;46.084;18.762;2022-12-11T06:01:46;98887.91;;;2.98;79.15
76460;BME280;65299;46.084;18.762;2022-12-11T06:04:47;98890.59;;;3.08;78.67
76460;BME280;65299;46.084;18.762;2022-12-11T06:07:47;98890.84;;;3.01;78.55
76460;BME280;65299;46.084;18.762;2022-12-11T06:10:48;98897.00;;;2.90;78.67
76460;BME280;65299;46.084;18.762;2022-12-11T06:13:49;98913.25;;;2.92;78.37
76460;BME280;65299;46.084;18.762;2022-12-11T06:16:49;98924.69;;;3.08;78.48
76460;BME280;65299;46.084;18.762;2022-12-11T06:19:50;98927.56;;;3.06;78.07
76460;BME280;65299;46.084;18.762;2022-12-11T06:22:50;98937.00;;;3.07;77.67
76460;BME280;65299;46.084;18.762;2022-12-11T06:25:50;98952.75;;;3.07;77.48
76460;BME280;65299;46.084;18.762;2022-12-11T06:28:51;98964.78;;;3.08;77.22
76460;BME280;65299;46.084;18.762;2022-12-11T06:31:52;98972.19;;;3.11;77.23
76460;BME280;65299;46.084;18.762;2022-12-11T06:34:52;98977.41;;;3.11;77.05
76460;BME280;65299;46.084;18.762;2022-12-11T06:37:52;99001.00;;;3.11;77.42
76460;BME280;65299;46.084;18.762;2022-12-11T06:40:54;99002.13;;;3.20;76.68
76460;BME280;65299;46.084;18.762;2022-12-11T06:43:55;99004.81;;;3.25;77.15
76460;BME280;65299;46.084;18.762;2022-12-11T06:46:56;99006.56;;;3.20;76.79
76460;BME280;65299;46.084;18.762;2022-12-11T06:49:56;99015.84;;;3.27;76.56
76460;BME280;65299;46.084;18.762;2022-12-11T06:52:57;99025.03;;;3.30;76.45
76460;BME280;65299;46.084;18.762;2022-12-11T06:56:04;99015.63;;;3.34;76.02
76460;BME280;65299;46.084;18.762;2022-12-11T06:59:05;99018.81;;;3.36;76.04
76460;BME280;65299;46.084;18.762;2022-12-11T07:02:06;99028.47;;;3.30;75.86
76460;BME280;65299;46.084;18.762;2022-12-11T07:05:06;99026.47;;;3.43;75.16
76460;BME280;65299;46.084;18.762;2022-12-11T07:08:07;99024.50;;;3.55;75.66
76460;BME280;65299;46.084;18.762;2022-12-11T07:11:10;99013.97;;;3.50;75.53
76460;BME280;65299;46.084;18.762;2022-12-11T07:14:11;99020.66;;;3.35;75.41
76460;BME280;65299;46.084;18.762;2022-12-11T07:17:11;99025.94;;;3.41;75.63
76460;BME280;65299;46.084;18.762;2022-12-11T07:20:12;99034.41;;;3.48;75.66
76460;BME280;65299;46.084;18.762;2022-12-11T07:23:12;99036.84;;;3.54;75.47
76460;BME280;65299;46.084;18.762;2022-12-11T07:26:16;99040.66;;;3.42;75.85
76460;BME280;65299;46.084;18.762;2022-12-11T07:29:17;99049.16;;;3.54;75.93
76460;BME280;65299;46.084;18.762;2022-12-11T07:32:17;99066.00;;;3.58;75.90
76460;BME280;65299;46.084;18.762;2022-12-11T07:35:17;99061.91;;;3.45;75.42
76460;BME280;65299;46.084;18.762;2022-12-11T07:38:18;99073.94;;;3.41;75.85
76460;BME280;65299;46.084;18.762;2022-12-11T07:41:18;99079.38;;;3.34;75.57
76460;BME280;65299;46.084;18.762;2022-12-11T07:44:19;99079.06;;;3.31;75.96
76460;BME280;65299;46.084;18.762;2022-12-11T07:47:19;99083.16;;;3.44;75.46
76460;BME280;65299;46.084;18.762;2022-12-11T07:50:20;99094.66;;;3.43;75.57
76460;BME280;65299;46.084;18.762;2022-12-11T07:53:20;99094.66;;;3.43;75.86
76460;BME280;65299;46.084;18.762;2022-12-11T07:56:21;99098.38;;;3.47;75.59
76460;BME280;65299;46.084;18.762;2022-12-11T07:59:22;99107.22;;;3.41;75.33
76460;BME280;65299;46.084;18.762;2022-12-11T08:02:22;99116.78;;;3.30;74.87
76460;BME280;65299;46.084;18.762;2022-12-11T08:05:22;99121.38;;;3.40;75.36
76460;BME280;65299;46.084;18.762;2022-12-11T08:08:23;99113.75;;;3.38;75.45
76460;BME280;65299;46.084;18.762;2022-12-11T08:11:25;99102.59;;;3.48;74.81
76460;BME280;65299;46.084;18.762;2022-12-11T08:14:25;99114.06;;;3.42;75.00
76460;BME280;65299;46.084;18.762;2022-12-11T08:17:26;99130.28;;;3.38;75.54
76460;BME280;65299;46.084;18.762;2022-12-11T08:20:26;99141.38;;;3.46;75.29
76460;BME280;65299;46.084;18.762;2022-12-11T08:23:27;99141.13;;;3.47;75.72
76460;BME280;65299;46.084;18.762;2022-12-11T08:26:29;99157.66;;;3.48;75.31
76460;BME280;65299;46.084;18.762;2022-12-11T08:29:30;99151.69;;;3.52;74.76
76460;BME280;65299;46.084;18.762;2022-12-11T08:32:31;99155.78;;;3.43;75.43
76460;BME280;65299;46.084;18.762;2022-12-11T08:35:32;99149.69;;;3.38;75.36
76460;BME280;65299;46.084;18.762;2022-12-11T08:38:33;99146.50;;;3.35;74.54
76460;BME280;65299;46.084;18.762;2022-12-11T08:41:33;99147.19;;;3.48;74.94
76460;BME280;65299;46.084;18.762;2022-12-11T08:44:34;99145.59;;;3.47;74.61
76460;BME280;65299;46.084;18.762;2022-12-11T08:47:34;99145.66;;;3.52;74.33
76460;BME280;65299;46.084;18.762;2022-12-11T08:50:36;99156.03;;;3.42;74.17
76460;BME280;65299;46.084;18.762;2022-12-11T08:53:36;99149.69;;;3.38;74.76
76460;BME280;65299;46.084;18.762;2022-12-11T08:56:38;99160.66;;;3.34;74.10
76460;BME280;65299;46.084;18.762;2022-12-11T08:59:38;99174.84;;;3.38;74.00
76460;BME280;65299;46.084;18.762;2022-12-11T09:02:39;99179.50;;;3.53;75.09
76460;BME280;65299;46.084;18.762;2022-12-11T09:05:39;99182.78;;;3.65;73.23
76460;BME280;65299;46.084;18.762;2022-12-11T09:08:40;99187.97;;;3.38;73.95
76460;BME280;65299;46.084;18.762;2022-12-11T09:11:41;99181.75;;;3.45;73.53
76460;BME280;65299;46.084;18.762;2022-12-11T09:14:41;99187.00;;;3.45;73.90
76460;BME280;65299;46.084;18.762;2022-12-11T09:17:42;99174.44;;;3.47;73.15
76460;BME280;65299;46.084;18.762;2022-12-11T09:20:42;99181.66;;;3.56;73.79
76460;BME280;65299;46.084;18.762;2022-12-11T09:23:43;99179.25;;;3.55;73.53
76460;BME280;65299;46.084;18.762;2022-12-11T09:26:44;99189.81;;;3.60;73.02
76460;BME280;65299;46.084;18.762;2022-12-11T09:29:46;99188.84;;;3.66;73.24
76460;BME280;65299;46.084;18.762;2022-12-11T09:32:46;99192.69;;;3.58;72.56
76460;BME280;65299;46.084;18.762;2022-12-11T09:35:58;99201.00;;;3.50;72.56
76460;BME280;65299;46.084;18.762;2022-12-11T09:39:04;99206.56;;;3.59;71.80
76460;BME280;65299;46.084;18.762;2022-12-11T09:45:11;99204.44;;;3.77;72.83
76460;BME280;65299;46.084;18.762;2022-12-11T09:48:16;99193.41;;;3.75;73.01
76460;BME280;65299;46.084;18.762;2022-12-11T09:51:41;99189.75;;;3.76;72.18
76460;BME280;65299;46.084;18.762;2022-12-11T09:54:49;99179.44;;;3.70;71.67
76460;BME280;65299;46.084;18.762;2022-12-11T10:01:40;99193.03;;;3.67;71.26
76460;BME280;65299;46.084;18.762;2022-12-11T10:08:35;99184.84;;;3.85;72.46
76460;BME280;65299;46.084;18.762;2022-12-11T10:18:04;99188.78;;;3.82;71.35
76460;BME280;65299;46.084;18.762;2022-12-11T10:21:09;99178.38;;;3.92;72.03
76460;BME280;65299;46.084;18.762;2022-12-11T10:27:33;99192.84;;;3.95;72.44
76460;BME280;65299;46.084;18.762;2022-12-11T10:30:36;99196.50;;;3.94;72.07
76460;BME280;65299;46.084;18.762;2022-12-11T10:34:03;99206.72;;;3.90;72.01
76460;BME280;65299;46.084;18.762;2022-12-11T10:37:04;99198.09;;;3.73;72.24
76460;BME280;65299;46.084;18.762;2022-12-11T10:40:05;99191.25;;;3.94;72.50
76460;BME280;65299;46.084;18.762;2022-12-11T10:43:06;99195.59;;;3.83;71.78
76460;BME280;65299;46.084;18.762;2022-12-11T10:46:14;99197.97;;;3.85;72.21
76460;BME280;65299;46.084;18.762;2022-12-11T10:49:24;99200.00;;;3.78;71.85
76460;BME280;65299;46.084;18.762;2022-12-11T10:52:34;99194.31;;;3.86;71.73
76460;BME280;65299;46.084;18.762;2022-12-11T10:55:43;99194.75;;;3.78;72.26
76460;BME280;65299;46.084;18.762;2022-12-11T10:58:48;99195.31;;;3.80;72.06
76460;BME280;65299;46.084;18.762;2022-12-11T11:01:49;99195.31;;;3.80;71.34
76460;BME280;65299;46.084;18.762;2022-12-11T11:04:50;99193.91;;;3.72;71.12
76460;BME280;65299;46.084;18.762;2022-12-11T11:08:11;99190.22;;;3.73;71.93
76460;BME280;65299;46.084;18.762;2022-12-11T11:14:22;99201.56;;;3.79;72.23
76460;BME280;65299;46.084;18.762;2022-12-11T11:17:22;99192.31;;;3.71;70.73
76460;BME280;65299;46.084;18.762;2022-12-11T11:20:25;99188.34;;;3.69;71.73
76460;BME280;65299;46.084;18.762;2022-12-11T11:23:27;99184.06;;;3.63;70.31
76460;BME280;65299;46.084;18.762;2022-12-11T11:26:31;99176.75;;;3.65;70.82
76460;BME280;65299;46.084;18.762;2022-12-11T11:29:34;99178.03;;;3.84;70.90
76460;BME280;65299;46.084;18.762;2022-12-11T11:32:37;99183.03;;;3.85;71.56
76460;BME280;65299;46.084;18.762;2022-12-11T11:35:38;99175.00;;;3.70;70.14
76460;BME280;65299;46.084;18.762;2022-12-11T11:38:46;99174.56;;;3.78;69.37
76460;BME280;65299;46.084;18.762;2022-12-11T11:45:04;99184.50;;;3.76;68.97
76460;BME280;65299;46.084;18.762;2022-12-11T11:51:26;99190.22;;;3.73;69.87
76460;BME280;65299;46.084;18.762;2022-12-11T11:54:35;99199.44;;;3.76;71.42
76460;BME280;65299;46.084;18.762;2022-12-11T11:57:44;99211.09;;;3.85;71.56
76460;BME280;65299;46.084;18.762;2022-12-11T12:00:46;99216.28;;;3.80;71.87
76460;BME280;65299;46.084;18.762;2022-12-11T12:03:48;99227.25;;;3.77;71.82
76460;BME280;65299;46.084;18.762;2022-12-11T12:06:56;99233.13;;;3.84;71.06
76460;BME280;65299;46.084;18.762;2022-12-11T12:10:20;99230.50;;;3.84;69.49
76460;BME280;65299;46.084;18.762;2022-12-11T12:26:51;99229.63;;;4.00;67.70
76460;BME280;65299;46.084;18.762;2022-12-11T12:30:08;99222.63;;;3.84;69.42
76460;BME280;65299;46.084;18.762;2022-12-11T12:33:50;99230.16;;;3.97;68.45
76460;BME280;65299;46.084;18.762;2022-12-11T12:36:58;99225.75;;;4.02;69.52
76460;BME280;65299;46.084;18.762;2022-12-11T12:49:40;99214.19;;;4.03;69.59
76460;BME280;65299;46.084;18.762;2022-12-11T12:52:41;99228.97;;;3.88;68.17
76460;BME280;65299;46.084;18.762;2022-12-11T12:55:42;99238.03;;;3.97;69.28
76460;BME280;65299;46.084;18.762;2022-12-11T12:58:44;99247.66;;;4.13;69.77
76460;BME280;65299;46.084;18.762;2022-12-11T13:01:46;99244.34;;;4.22;69.80
76460;BME280;65299;46.084;18.762;2022-12-11T13:05:02;99258.25;;;4.23;70.20
76460;BME280;65299;46.084;18.762;2022-12-11T13:08:04;99252.75;;;4.25;70.25
76460;BME280;65299;46.084;18.762;2022-12-11T13:11:08;99271.22;;;4.08;69.97
76460;BME280;65299;46.084;18.762;2022-12-11T13:20:21;99278.28;;;3.86;71.58
76460;BME280;65299;46.084;18.762;2022-12-11T13:23:27;99271.38;;;4.01;71.17
76460;BME280;65299;46.084;18.762;2022-12-11T13:26:31;99267.78;;;3.86;70.96
76460;BME280;65299;46.084;18.762;2022-12-11T13:29:40;99281.09;;;3.79;71.25
76460;BME280;65299;46.084;18.762;2022-12-11T13:32:43;99281.69;;;3.65;70.48
76460;BME280;65299;46.084;18.762;2022-12-11T13:36:47;99276.25;;;3.71;70.67
76460;BME280;65299;46.084;18.762;2022-12-11T13:39:25;99275.78;;;3.74;70.45
76460;BME280;65299;46.084;18.762;2022-12-11T13:42:31;99277.81;;;3.89;71.33
76460;BME280;65299;46.084;18.762;2022-12-11T13:45:39;99267.00;;;3.85;69.69
76460;BME280;65299;46.084;18.762;2022-12-11T13:48:51;99267.53;;;3.87;69.77
76460;BME280;65299;46.084;18.762;2022-12-11T13:51:58;99276.47;;;3.86;69.91
76460;BME280;65299;46.084;18.762;2022-12-11T13:54:59;99284.00;;;3.83;69.13
76460;BME280;65299;46.084;18.762;2022-12-11T13:58:00;99287.00;;;3.70;68.82
76460;BME280;65299;46.084;18.762;2022-12-11T14:01:19;99293.06;;;3.70;69.53
76460;BME280;65299;46.084;18.762;2022-12-11T14:04:21;99296.72;;;3.53;70.29
76460;BME280;65299;46.084;18.762;2022-12-11T14:07:26;99292.50;;;3.68;69.45
76460;BME280;65299;46.084;18.762;2022-12-11T14:10:30;99300.13;;;3.70;69.83
76460;BME280;65299;46.084;18.762;2022-12-11T14:13:38;99304.75;;;3.63;70.35
76460;BME280;65299;46.084;18.762;2022-12-11T14:16:39;99310.19;;;3.56;69.45
76460;BME280;65299;46.084;18.762;2022-12-11T14:19:45;99301.19;;;3.52;69.16
76460;BME280;65299;46.084;18.762;2022-12-11T14:22:46;99302.44;;;3.66;68.96
76460;BME280;65299;46.084;18.762;2022-12-11T14:25:58;99296.66;;;3.64;68.14
76460;BME280;65299;46.084;18.762;2022-12-11T14:28:59;99292.97;;;3.65;69.40
76460;BME280;65299;46.084;18.762;2022-12-11T14:32:03;99309.66;;;3.76;69.55
76460;BME280;65299;46.084;18.762;2022-12-11T14:35:15;99324.13;;;3.78;69.08
76460;BME280;65299;46.084;18.762;2022-12-11T14:41:41;99326.22;;;3.60;68.89
76460;BME280;65299;46.084;18.762;2022-12-11T14:44:52;99332.56;;;3.64;68.57
76460;BME280;65299;46.084;18.762;2022-12-11T14:47:55;99337.97;;;3.74;67.99
76460;BME280;65299;46.084;18.762;2022-12-11T14:51:00;99336.34;;;3.73;69.06
76460;BME280;65299;46.084;18.762;2022-12-11T14:54:01;99336.84;;;3.70;68.78
76460;BME280;65299;46.084;18.762;2022-12-11T14:57:03;99328.19;;;3.53;68.21
76460;BME280;65299;46.084;18.762;2022-12-11T15:00:06;99334.50;;;3.52;68.24
76460;BME280;65299;46.084;18.762;2022-12-11T15:06:43;99350.63;;;3.44;67.73
76460;BME280;65299;46.084;18.762;2022-12-11T15:09:45;99355.47;;;3.52;68.24
76460;BME280;65299;46.084;18.762;2022-12-11T15:12:45;99360.88;;;3.45;68.17
76460;BME280;65299;46.084;18.762;2022-12-11T15:15:46;99374.84;;;3.34;68.21
76460;BME280;65299;46.084;18.762;2022-12-11T15:18:48;99379.50;;;3.44;67.43
76460;BME280;65299;46.084;18.762;2022-12-11T15:21:50;99387.09;;;3.45;68.15
76460;BME280;65299;46.084;18.762;2022-12-11T15:24:52;99399.34;;;3.40;68.69
76460;BME280;65299;46.084;18.762;2022-12-11T15:27:58;99403.72;;;3.51;68.68
76460;BME280;65299;46.084;18.762;2022-12-11T15:31:01;99405.47;;;3.45;68.31
76460;BME280;65299;46.084;18.762;2022-12-11T15:34:02;99412.31;;;3.46;68.63
76460;BME280;65299;46.084;18.762;2022-12-11T15:37:03;99412.69;;;3.55;69.98
76460;BME280;65299;46.084;18.762;2022-12-11T15:40:04;99414.59;;;3.43;69.54
76460;BME280;65299;46.084;18.762;2022-12-11T15:43:05;99420.09;;;3.41;69.41
76460;BME280;65299;46.084;18.762;2022-12-11T15:46:05;99409.75;;;3.34;70.22
76460;BME280;65299;46.084;18.762;2022-12-11T15:49:12;99406.09;;;3.35;68.52
76460;BME280;65299;46.084;18.762;2022-12-11T15:52:12;99402.94;;;3.33;69.23
76460;BME280;65299;46.084;18.762;2022-12-11T15:55:13;99392.28;;;3.23;68.57
76460;BME280;65299;46.084;18.762;2022-12-11T15:58:19;99389.00;;;3.16;69.45
76460;BME280;65299;46.084;18.762;2022-12-11T16:01:20;99378.03;;;3.19;69.02
76460;BME280;65299;46.084;18.762;2022-12-11T16:04:20;99382.94;;;3.16;69.36
76460;BME280;65299;46.084;18.762;2022-12-11T16:07:23;99378.66;;;3.10;69.12
76460;BME280;65299;46.084;18.762;2022-12-11T16:10:24;99373.78;;;3.02;69.28
76460;BME280;65299;46.084;18.762;2022-12-11T16:13:25;99370.84;;;2.98;69.74
76460;BME280;65299;46.084;18.762;2022-12-11T16:16:26;99370.91;;;2.87;68.60
76460;BME280;65299;46.084;18.762;2022-12-11T16:19:26;99370.13;;;2.86;68.91
76460;BME280;65299;46.084;18.762;2022-12-11T16:22:26;99369.06;;;2.87;69.13
76460;BME280;65299;46.084;18.762;2022-12-11T16:25:27;99368.69;;;2.79;68.94
76460;BME280;65299;46.084;18.762;2022-12-11T16:28:28;99385.72;;;2.81;69.35
76460;BME280;65299;46.084;18.762;2022-12-11T16:31:28;99393.00;;;2.91;69.10
76460;BME280;65299;46.084;18.762;2022-12-11T16:34:29;99401.94;;;2.78;68.70
76460;BME280;65299;46.084;18.762;2022-12-11T16:37:29;99400.13;;;2.79;69.73
76460;BME280;65299;46.084;18.762;2022-12-11T16:40:29;99393.97;;;2.73;68.59
76460;BME280;65299;46.084;18.762;2022-12-11T16:43:31;99401.75;;;2.68;68.45
76460;BME280;65299;46.084;18.762;2022-12-11T16:46:32;99395.38;;;2.64;68.82
76460;BME280;65299;46.084;18.762;2022-12-11T16:49:32;99402.75;;;2.67;68.94
76460;BME280;65299;46.084;18.762;2022-12-11T16:52:33;99400.81;;;2.74;69.29
76460;BME280;65299;46.084;18.762;2022-12-11T16:55:34;99405.38;;;2.67;68.92
76460;BME280;65299;46.084;18.762;2022-12-11T16:58:34;99400.25;;;2.72;68.53
76460;BME280;65299;46.084;18.762;2022-12-11T17:01:35;99395.63;;;2.63;68.62
76460;BME280;65299;46.084;18.762;2022-12-11T17:04:38;99392.94;;;2.74;69.42
76460;BME280;65299;46.084;18.762;2022-12-11T17:07:39;99395.81;;;2.73;68.63
76460;BME280;65299;46.084;18.762;2022-12-11T17:10:40;99393.59;;;2.53;68.07
76460;BME280;65299;46.084;18.762;2022-12-11T17:13:41;99395.00;;;2.44;68.99
76460;BME280;65299;46.084;18.762;2022-12-11T17:16:41;99386.28;;;2.55;67.94
76460;BME280;65299;46.084;18.762;2022-12-11T17:19:42;99386.28;;;2.55;68.93
76460;BME280;65299;46.084;18.762;2022-12-11T17:22:42;99381.28;;;2.53;68.40
76460;BME280;65299;46.084;18.762;2022-12-11T17:25:45;99385.47;;;2.66;68.13
76460;BME280;65299;46.084;18.762;2022-12-11T17:28:45;99398.25;;;2.63;68.27
76460;BME280;65299;46.084;18.762;2022-12-11T17:31:46;99409.16;;;2.60;68.14
76460;BME280;65299;46.084;18.762;2022-12-11T17:34:46;99418.91;;;2.76;68.87